createdAt,value
2022-08-25T00:02:03.087Z,17.40
2022-08-25T00:04:31.717Z,17.24
2022-08-25T00:07:03.282Z,17.07
2022-08-25T00:09:31.515Z,16.90
2022-08-25T00:11:58.843Z,17.05
2022-08-25T00:14:29.723Z,17.29
2022-08-25T00:16:56.804Z,17.25
2022-08-25T00:19:26.383Z,17.13
2022-08-25T00:21:53.370Z,17.01
2022-08-25T00:24:21.225Z,16.84
2022-08-25T00:26:49.752Z,16.73
2022-08-25T00:29:16.957Z,16.61
2022-08-25T00:31:44.348Z,16.85
2022-08-25T00:34:14.721Z,17.30
2022-08-25T00:36:41.969Z,17.30
2022-08-25T00:39:09.856Z,17.21
2022-08-25T00:41:37.103Z,16.94
2022-08-25T00:44:06.148Z,16.71
2022-08-25T00:46:41.763Z,16.55
2022-08-25T00:49:40.208Z,16.46
2022-08-25T00:52:19.442Z,16.48
2022-08-25T00:54:55.669Z,17.02
2022-08-25T00:57:34.678Z,17.11
2022-08-25T01:00:06.802Z,16.89
2022-08-25T01:02:33.839Z,16.67
2022-08-25T01:05:00.815Z,16.48
2022-08-25T01:07:27.865Z,16.34
2022-08-25T01:09:55.806Z,16.27
2022-08-25T01:12:22.778Z,16.26
2022-08-25T01:14:50.423Z,16.63
2022-08-25T01:17:17.359Z,17.10
2022-08-25T01:19:44.306Z,17.16
2022-08-25T01:22:12.373Z,16.78
2022-08-25T01:24:51.067Z,16.34
2022-08-25T01:27:17.960Z,16.00
2022-08-25T01:29:44.984Z,15.83
2022-08-25T01:32:13.468Z,15.75
2022-08-25T01:34:41.706Z,16.13
2022-08-25T01:37:09.711Z,16.54
2022-08-25T01:39:40.880Z,16.52
2022-08-25T01:42:09.466Z,16.38
2022-08-25T01:44:38.593Z,16.10
2022-08-25T01:47:06.322Z,15.93
2022-08-25T01:49:33.346Z,15.83
2022-08-25T01:52:21.578Z,15.89
2022-08-25T01:54:48.829Z,16.57
2022-08-25T01:57:15.889Z,16.76
2022-08-25T01:59:43.067Z,16.56
2022-08-25T02:02:10.639Z,16.33
2022-08-25T02:04:38.080Z,15.98
2022-08-25T02:07:07.116Z,15.70
2022-08-25T02:09:35.119Z,15.56
2022-08-25T02:12:02.196Z,15.51
2022-08-25T02:14:29.215Z,15.93
2022-08-25T02:16:56.436Z,16.13
2022-08-25T02:19:24.666Z,16.07
2022-08-25T02:21:51.790Z,15.95
2022-08-25T02:24:19.145Z,15.77
2022-08-25T02:26:46.205Z,15.62
2022-08-25T02:29:13.257Z,15.47
2022-08-25T02:31:40.343Z,15.86
2022-08-25T02:34:08.121Z,16.34
2022-08-25T02:36:35.307Z,16.40
2022-08-25T02:39:02.560Z,16.22
2022-08-25T02:41:31.788Z,15.87
2022-08-25T02:44:00.235Z,15.59
2022-08-25T02:46:27.491Z,15.24
2022-08-25T02:48:55.443Z,15.06
2022-08-25T02:51:23.171Z,15.41
2022-08-25T02:53:50.289Z,15.67
2022-08-25T02:56:18.451Z,15.63
2022-08-25T02:58:46.599Z,15.53
2022-08-25T03:01:13.827Z,15.36
2022-08-25T03:03:41.587Z,15.23
2022-08-25T03:06:12.704Z,15.05
2022-08-25T03:08:39.921Z,15.52
2022-08-25T03:11:07.072Z,15.99
2022-08-25T03:13:34.159Z,16.02
2022-08-25T03:16:02.993Z,15.85
2022-08-25T03:18:30.334Z,15.68
2022-08-25T03:20:57.964Z,15.53
2022-08-25T03:23:25.279Z,15.34
2022-08-25T03:26:13.726Z,15.20
2022-08-25T03:28:41.782Z,15.68
2022-08-25T03:31:08.795Z,16.09
2022-08-25T03:33:36.164Z,16.14
2022-08-25T03:36:03.689Z,16.03
2022-08-25T03:38:30.670Z,15.92
2022-08-25T03:40:57.907Z,15.90
2022-08-25T03:43:24.790Z,15.76
2022-08-25T03:45:51.935Z,15.62
2022-08-25T03:48:19.330Z,16.04
2022-08-25T03:50:51.767Z,16.62
2022-08-25T03:53:20.076Z,16.92
2022-08-25T03:55:47.797Z,16.90
2022-08-25T03:58:14.834Z,16.94
2022-08-25T04:00:42.400Z,16.87
2022-08-25T04:03:09.499Z,16.68
2022-08-25T04:05:36.727Z,16.84
2022-08-25T04:08:04.236Z,17.54
2022-08-25T04:10:32.154Z,18.36
2022-08-25T04:12:59.734Z,18.60
2022-08-25T04:15:30.099Z,18.48
2022-08-25T04:17:59.224Z,18.31
2022-08-25T04:20:26.356Z,18.27
2022-08-25T04:22:53.536Z,18.34
2022-08-25T04:25:20.586Z,18.41
2022-08-25T04:27:47.659Z,18.40
2022-08-25T04:30:15.497Z,18.38
2022-08-25T04:32:42.401Z,18.33
2022-08-25T04:35:09.950Z,18.44
2022-08-25T04:37:37.045Z,18.51
2022-08-25T04:40:05.346Z,18.59
2022-08-25T04:42:32.368Z,18.44
2022-08-25T04:45:00.160Z,18.54
2022-08-25T04:47:28.133Z,18.56
2022-08-25T04:49:56.074Z,18.62
2022-08-25T04:52:23.121Z,18.43
2022-08-25T04:54:50.174Z,18.67
2022-08-25T04:57:17.116Z,18.79
2022-08-25T04:59:44.025Z,18.87
2022-08-25T05:02:11.030Z,19.03
2022-08-25T05:04:38.237Z,19.11
2022-08-25T05:07:05.332Z,19.29
2022-08-25T05:09:32.987Z,19.47
2022-08-25T05:12:02.212Z,19.47
2022-08-25T05:14:30.136Z,19.52
2022-08-25T05:16:57.697Z,19.53
2022-08-25T05:19:24.875Z,19.75
2022-08-25T05:21:52.245Z,19.91
2022-08-25T05:24:20.065Z,20.02
2022-08-25T05:26:47.019Z,20.22
2022-08-25T05:29:14.676Z,20.32
2022-08-25T05:31:47.028Z,20.51
2022-08-25T05:34:18.598Z,20.70
2022-08-25T05:36:45.823Z,20.78
2022-08-25T05:39:13.002Z,21.00
2022-08-25T05:41:40.173Z,21.07
2022-08-25T05:44:07.513Z,21.11
2022-08-25T05:46:34.653Z,21.15
2022-08-25T05:49:02.215Z,21.33
2022-08-25T05:51:29.319Z,21.26
2022-08-25T05:53:56.425Z,21.37
2022-08-25T05:56:23.377Z,21.38
2022-08-25T05:58:50.488Z,21.47
2022-08-25T06:01:43.451Z,21.65
2022-08-25T06:04:13.439Z,21.57
2022-08-25T06:06:40.497Z,21.74
2022-08-25T06:09:08.965Z,21.93
2022-08-25T06:11:37.698Z,22.02
2022-08-25T06:14:05.063Z,22.03
2022-08-25T06:16:32.157Z,22.08
2022-08-25T06:18:59.348Z,22.02
2022-08-25T06:21:26.321Z,22.18
2022-08-25T06:23:53.233Z,22.29
2022-08-25T06:26:21.474Z,22.32
2022-08-25T06:28:50.494Z,22.32
2022-08-25T06:31:18.041Z,22.39
2022-08-25T06:33:45.330Z,22.55
2022-08-25T06:36:12.571Z,22.59
2022-08-25T06:38:39.619Z,22.67
2022-08-25T06:41:06.866Z,22.80
2022-08-25T06:43:34.432Z,23.00
2022-08-25T06:46:10.624Z,23.20
2022-08-25T06:48:38.051Z,23.40
2022-08-25T06:51:10.247Z,23.63
2022-08-25T06:53:41.978Z,23.78
2022-08-25T06:56:09.432Z,23.97
2022-08-25T06:58:36.490Z,24.02
2022-08-25T07:01:19.645Z,24.13
2022-08-25T07:03:47.748Z,24.27
2022-08-25T07:06:18.262Z,24.39
2022-08-25T07:08:46.993Z,24.45
2022-08-25T07:11:18.350Z,24.53
2022-08-25T07:13:45.714Z,24.54
2022-08-25T07:16:13.012Z,24.66
2022-08-25T07:18:40.817Z,24.73
2022-08-25T07:21:08.932Z,24.81
2022-08-25T07:23:37.191Z,24.95
2022-08-25T07:26:33.635Z,25.14
2022-08-25T07:28:59.934Z,25.31
2022-08-25T07:31:29.443Z,25.41
2022-08-25T07:34:16.708Z,25.59
2022-08-25T07:36:44.936Z,25.66
2022-08-25T07:39:12.086Z,25.86
2022-08-25T07:41:40.619Z,26.00
2022-08-25T07:44:08.150Z,26.29
2022-08-25T07:46:35.552Z,26.51
2022-08-25T07:49:02.681Z,26.52
2022-08-25T07:51:29.784Z,26.85
2022-08-25T07:53:57.165Z,27.19
2022-08-25T07:56:24.715Z,27.24
2022-08-25T07:58:51.747Z,27.55
2022-08-25T08:01:20.925Z,27.85
2022-08-25T08:03:51.143Z,28.06
2022-08-25T08:06:22.194Z,28.24
2022-08-25T08:08:50.515Z,27.53
2022-08-25T08:11:24.210Z,27.87
2022-08-25T08:13:51.932Z,28.10
2022-08-25T08:16:19.709Z,28.46
2022-08-25T08:18:47.084Z,28.77
2022-08-25T08:21:19.049Z,28.94
2022-08-25T08:23:48.570Z,29.11
2022-08-25T08:26:17.160Z,29.29
2022-08-25T08:28:44.577Z,29.50
2022-08-25T08:31:21.441Z,29.82
2022-08-25T08:33:49.645Z,30.10
2022-08-25T08:36:17.420Z,30.25
2022-08-25T08:38:45.059Z,29.75
2022-08-25T08:41:40.097Z,29.76
2022-08-25T08:44:42.720Z,29.67
2022-08-25T08:47:38.166Z,30.06
2022-08-25T08:50:30.742Z,30.20
2022-08-25T08:53:11.941Z,30.22
2022-08-25T08:55:43.854Z,30.70
2022-08-25T08:58:13.361Z,30.96
2022-08-25T09:00:51.997Z,31.03
2022-08-25T09:03:41.360Z,30.97
2022-08-25T09:06:23.220Z,31.20
2022-08-25T09:08:51.101Z,29.89
2022-08-25T09:11:36.988Z,30.42
2022-08-25T09:14:33.465Z,31.21
2022-08-25T09:17:05.296Z,31.34
2022-08-25T09:19:42.082Z,31.32
2022-08-25T09:22:35.649Z,30.73
2022-08-25T09:25:10.585Z,31.67
2022-08-25T09:28:08.845Z,31.99
2022-08-25T09:30:45.451Z,32.06
2022-08-25T09:33:13.485Z,32.40
2022-08-25T09:35:48.085Z,32.37
2022-08-25T09:38:16.924Z,32.71
2022-08-25T09:40:47.528Z,32.60
2022-08-25T09:43:25.262Z,33.06
2022-08-25T09:45:58.476Z,33.41
2022-08-25T09:48:40.738Z,33.73
2022-08-25T09:51:11.548Z,32.67
2022-08-25T09:53:48.775Z,31.77
2022-08-25T09:56:16.919Z,32.09
2022-08-25T09:58:43.967Z,32.68
2022-08-25T10:01:22.560Z,33.39
2022-08-25T10:04:17.704Z,33.65
2022-08-25T10:06:48.134Z,33.62
2022-08-25T10:09:25.917Z,33.89
2022-08-25T10:11:57.988Z,34.39
2022-08-25T10:14:25.241Z,34.74
2022-08-25T10:16:54.742Z,34.91
2022-08-25T10:19:23.788Z,35.02
2022-08-25T10:22:11.519Z,35.08
2022-08-25T10:24:41.026Z,35.05
2022-08-25T10:27:20.284Z,34.74
2022-08-25T10:30:17.774Z,34.79
2022-08-25T10:33:17.653Z,34.70
2022-08-25T10:36:00.223Z,34.71
2022-08-25T10:38:38.487Z,34.66
2022-08-25T10:41:33.133Z,35.01
2022-08-25T10:44:39.416Z,34.88
2022-08-25T10:47:39.192Z,34.74
2022-08-25T10:50:32.253Z,34.59
2022-08-25T10:53:23.073Z,35.15
2022-08-25T10:56:09.072Z,35.12
2022-08-25T10:59:44.290Z,34.85
2022-08-25T11:02:41.496Z,34.61
2022-08-25T11:05:37.124Z,35.04
2022-08-25T11:08:12.119Z,35.37
2022-08-25T11:10:41.216Z,35.41
2022-08-25T11:13:16.341Z,35.41
2022-08-25T11:16:15.508Z,35.28
2022-08-25T11:18:39.835Z,35.29
2022-08-25T11:21:12.392Z,35.18
2022-08-25T11:23:44.457Z,34.76
2022-08-25T11:26:13.668Z,34.60
2022-08-25T11:28:47.921Z,34.76
2022-08-25T11:31:16.110Z,34.58
2022-08-25T11:33:43.632Z,34.40
2022-08-25T11:36:29.655Z,34.34
2022-08-25T11:39:00.735Z,34.19
2022-08-25T11:41:53.696Z,33.91
2022-08-25T11:44:33.109Z,33.86
2022-08-25T11:47:01.087Z,33.57
2022-08-25T11:49:43.200Z,33.21
2022-08-25T11:52:39.261Z,33.35
2022-08-25T11:55:40.481Z,33.34
2022-08-25T11:58:27.389Z,33.25
2022-08-25T12:00:55.680Z,33.36
2022-08-25T12:03:32.041Z,33.34
2022-08-25T12:06:25.506Z,33.36
2022-08-25T12:09:03.328Z,33.34
2022-08-25T12:11:41.658Z,33.30
2022-08-25T12:14:17.897Z,33.33
2022-08-25T12:17:05.369Z,32.97
2022-08-25T12:19:35.512Z,33.08
2022-08-25T12:22:03.922Z,33.17
2022-08-25T12:24:48.171Z,33.12
2022-08-25T12:27:43.671Z,33.06
2022-08-25T12:30:18.372Z,33.15
2022-08-25T12:33:08.688Z,33.27
2022-08-25T12:35:49.690Z,33.35
2022-08-25T12:38:44.732Z,33.53
2022-08-25T12:41:18.706Z,33.71
2022-08-25T12:43:47.540Z,33.72
2022-08-25T12:46:27.893Z,33.21
2022-08-25T12:49:33.376Z,33.20
2022-08-25T12:52:06.580Z,33.30
2022-08-25T12:54:36.793Z,33.48
2022-08-25T12:57:35.375Z,33.56
2022-08-25T13:00:18.365Z,33.60
2022-08-25T13:03:11.663Z,33.76
2022-08-25T13:05:45.571Z,33.96
2022-08-25T13:08:23.014Z,34.15
2022-08-25T13:11:35.574Z,34.21
2022-08-25T13:14:38.241Z,34.27
2022-08-25T13:17:05.779Z,34.29
2022-08-25T13:19:35.148Z,34.20
2022-08-25T13:22:15.426Z,33.87
2022-08-25T13:24:44.200Z,33.72
2022-08-25T13:27:22.679Z,33.73
2022-08-25T13:29:52.774Z,33.74
2022-08-25T13:32:32.168Z,33.72
2022-08-25T13:35:17.583Z,33.66
2022-08-25T13:37:47.018Z,33.35
2022-08-25T13:40:19.866Z,33.26
2022-08-25T13:43:14.106Z,33.35
2022-08-25T13:45:46.958Z,33.23
2022-08-25T13:48:20.881Z,32.96
2022-08-25T13:50:52.664Z,32.79
2022-08-25T13:53:25.490Z,33.09
2022-08-25T13:55:53.508Z,33.25
2022-08-25T13:58:45.094Z,33.14
2022-08-25T14:01:23.452Z,33.15
2022-08-25T14:04:50.718Z,33.10
2022-08-25T14:07:22.741Z,33.15
2022-08-25T14:09:57.522Z,33.28
2022-08-25T14:12:30.917Z,33.22
2022-08-25T14:14:59.871Z,32.91
2022-08-25T14:17:39.453Z,33.07
2022-08-25T14:20:22.080Z,33.02
2022-08-25T14:22:51.315Z,33.11
2022-08-25T14:25:18.474Z,33.14
2022-08-25T14:30:34.764Z,33.02
2022-08-25T14:33:02.863Z,33.11
2022-08-25T14:35:30.008Z,33.02
2022-08-25T14:37:58.835Z,33.00
2022-08-25T14:40:27.356Z,32.87
2022-08-25T14:42:56.887Z,32.76
2022-08-25T14:45:24.019Z,32.66
2022-08-25T14:47:51.185Z,32.60
2022-08-25T14:50:20.171Z,32.51
2022-08-25T14:52:51.774Z,32.54
2022-08-25T14:55:31.639Z,32.44
2022-08-25T14:57:59.651Z,32.50
2022-08-25T15:00:26.804Z,32.36
2022-08-25T15:02:55.105Z,32.12
2022-08-25T15:05:25.936Z,32.18
2022-08-25T15:08:12.454Z,32.24
2022-08-25T15:10:40.594Z,32.16
2022-08-25T15:13:07.767Z,32.04
2022-08-25T15:15:36.027Z,31.98
2022-08-25T15:18:03.409Z,32.00
2022-08-25T15:20:30.755Z,31.90
2022-08-25T15:22:57.882Z,31.92
2022-08-25T15:25:25.147Z,31.90
2022-08-25T15:27:52.177Z,31.79
2022-08-25T15:30:19.250Z,31.73
2022-08-25T15:32:48.597Z,31.66
2022-08-25T15:35:15.989Z,31.62
2022-08-25T15:37:43.144Z,31.57
2022-08-25T15:40:10.997Z,31.55
2022-08-25T15:42:42.719Z,31.46
2022-08-25T15:45:11.555Z,31.41
2022-08-25T15:47:38.698Z,31.31
2022-08-25T15:50:14.980Z,31.14
2022-08-25T15:52:47.419Z,31.10
2022-08-25T15:55:15.201Z,31.08
2022-08-25T15:57:42.690Z,30.94
2022-08-25T16:00:12.153Z,30.82
2022-08-25T16:02:40.956Z,30.75
2022-08-25T16:05:09.182Z,30.58
2022-08-25T16:07:36.509Z,30.42
2022-08-25T16:10:04.644Z,30.37
2022-08-25T16:12:32.029Z,30.30
2022-08-25T16:14:59.054Z,30.25
2022-08-25T16:17:26.921Z,30.13
2022-08-25T16:19:54.025Z,29.88
2022-08-25T16:22:21.224Z,29.71
2022-08-25T16:24:48.288Z,29.55
2022-08-25T16:27:15.425Z,29.37
2022-08-25T16:29:44.039Z,29.21
2022-08-25T16:32:13.424Z,29.07
2022-08-25T16:34:41.790Z,28.97
2022-08-25T16:37:09.147Z,28.83
2022-08-25T16:39:39.951Z,28.69
2022-08-25T16:42:08.204Z,28.55
2022-08-25T16:44:35.406Z,28.43
2022-08-25T16:47:02.915Z,28.27
2022-08-25T16:49:31.212Z,28.04
2022-08-25T16:51:58.288Z,27.78
2022-08-25T16:54:45.121Z,27.58
2022-08-25T16:57:12.686Z,27.33
2022-08-25T16:59:39.718Z,27.07
2022-08-25T17:02:06.902Z,26.79
2022-08-25T17:04:34.153Z,26.39
2022-08-25T17:07:01.875Z,25.96
2022-08-25T17:09:30.046Z,25.52
2022-08-25T17:11:57.503Z,25.18
2022-08-25T17:14:24.861Z,24.96
2022-08-25T17:16:54.900Z,24.81
2022-08-25T17:19:23.805Z,24.64
2022-08-25T17:21:51.039Z,24.48
2022-08-25T17:24:18.090Z,24.38
2022-08-25T17:26:46.590Z,24.21
2022-08-25T17:29:13.712Z,24.00
2022-08-25T17:31:41.017Z,23.81
2022-08-25T17:34:09.637Z,23.60
2022-08-25T17:36:37.503Z,23.45
2022-08-25T17:39:07.851Z,23.31
2022-08-25T17:41:37.733Z,23.27
2022-08-25T17:44:05.513Z,23.28
2022-08-25T17:46:33.254Z,23.11
2022-08-25T17:49:00.531Z,22.91
2022-08-25T17:51:29.735Z,22.82
2022-08-25T17:53:59.130Z,22.77
2022-08-25T17:56:27.431Z,22.70
2022-08-25T17:58:57.909Z,22.64
2022-08-25T18:01:27.194Z,22.54
2022-08-25T18:03:54.587Z,22.53
2022-08-25T18:06:23.292Z,22.55
2022-08-25T18:08:52.951Z,22.56
2022-08-25T18:11:24.762Z,22.55
2022-08-25T18:13:53.939Z,22.53
2022-08-25T18:16:21.625Z,22.47
2022-08-25T18:18:48.953Z,22.34
2022-08-25T18:21:16.930Z,22.20
2022-08-25T18:23:44.584Z,22.15
2022-08-25T18:26:13.181Z,22.10
2022-08-25T18:28:43.873Z,22.06
2022-08-25T18:31:13.235Z,22.04
2022-08-25T18:33:42.299Z,22.00
2022-08-25T18:36:10.062Z,21.96
2022-08-25T18:38:58.120Z,21.97
2022-08-25T18:41:27.944Z,21.96
2022-08-25T18:43:55.268Z,21.90
2022-08-25T18:46:22.955Z,21.82
2022-08-25T18:48:52.869Z,21.80
2022-08-25T18:51:23.257Z,21.78
2022-08-25T18:53:54.475Z,21.72
2022-08-25T18:56:26.721Z,21.65
2022-08-25T18:58:53.843Z,21.56
2022-08-25T19:01:21.434Z,21.49
2022-08-25T19:03:49.322Z,21.46
2022-08-25T19:06:17.257Z,21.45
2022-08-25T19:08:47.042Z,21.41
2022-08-25T19:11:14.604Z,21.38
2022-08-25T19:13:43.514Z,21.32
2022-08-25T19:16:20.588Z,21.27
2022-08-25T19:18:49.113Z,21.23
2022-08-25T19:21:22.581Z,21.10
2022-08-25T19:23:51.355Z,21.06
2022-08-25T19:26:19.525Z,21.01
2022-08-25T19:28:48.957Z,20.98
2022-08-25T19:31:18.519Z,20.94
2022-08-25T19:33:49.571Z,20.88
2022-08-25T19:36:17.075Z,20.82
2022-08-25T19:38:44.696Z,20.79
2022-08-25T19:41:14.520Z,20.77
2022-08-25T19:43:55.106Z,20.75
2022-08-25T19:46:32.212Z,20.74
2022-08-25T19:49:07.261Z,20.70
2022-08-25T19:51:39.352Z,20.67
2022-08-25T19:54:09.141Z,20.62
2022-08-25T19:56:43.894Z,20.56
2022-08-25T19:59:40.550Z,20.56
2022-08-25T20:02:15.149Z,20.52
2022-08-25T20:04:49.452Z,20.47
2022-08-25T20:07:23.575Z,20.46
2022-08-25T20:09:52.074Z,20.43
2022-08-25T20:12:20.374Z,20.38
2022-08-25T20:14:48.282Z,20.31
2022-08-25T20:17:24.893Z,20.26
2022-08-25T20:20:02.026Z,20.20
2022-08-25T20:22:32.933Z,20.13
2022-08-25T20:25:02.820Z,20.07
2022-08-25T20:27:37.138Z,20.01
2022-08-25T20:30:07.838Z,19.96
2022-08-25T20:32:36.055Z,19.89
2022-08-25T20:35:04.143Z,19.83
2022-08-25T20:37:31.300Z,19.71
2022-08-25T20:40:01.435Z,19.53
2022-08-25T20:42:29.689Z,19.41
2022-08-25T20:44:56.815Z,19.17
2022-08-25T20:47:24.933Z,19.14
2022-08-25T20:49:52.190Z,19.08
2022-08-25T20:52:19.602Z,19.01
2022-08-25T20:54:50.516Z,18.93
2022-08-25T20:57:25.754Z,18.85
2022-08-25T20:59:54.929Z,18.66
2022-08-25T21:02:23.253Z,18.49
2022-08-25T21:04:50.810Z,18.38
2022-08-25T21:07:18.877Z,18.18
2022-08-25T21:09:46.467Z,18.12
2022-08-25T21:12:13.494Z,18.01
2022-08-25T21:14:41.667Z,18.37
2022-08-25T21:17:12.053Z,18.77
2022-08-25T21:19:39.996Z,18.87
2022-08-25T21:22:09.690Z,18.98
2022-08-25T21:24:38.042Z,18.84
2022-08-25T21:27:05.127Z,18.70
2022-08-25T21:29:33.175Z,18.45
2022-08-25T21:32:00.336Z,18.37
2022-08-25T21:34:29.023Z,18.19
2022-08-25T21:36:58.335Z,17.99
2022-08-25T21:39:28.685Z,17.85
2022-08-25T21:41:56.741Z,17.70
2022-08-25T21:44:23.873Z,17.53
2022-08-25T21:46:54.626Z,17.42
2022-08-25T21:49:23.220Z,17.46
2022-08-25T21:51:59.830Z,17.39
2022-08-25T21:54:28.635Z,17.32
2022-08-25T21:57:03.962Z,17.32
2022-08-25T21:59:36.541Z,17.82
2022-08-25T22:02:06.099Z,18.42
2022-08-25T22:04:33.223Z,18.55
2022-08-25T22:07:00.548Z,18.43
2022-08-25T22:09:28.391Z,18.24
2022-08-25T22:11:55.839Z,18.01
2022-08-25T22:14:23.777Z,17.80
2022-08-25T22:16:52.175Z,17.63
2022-08-25T22:19:19.471Z,17.42
2022-08-25T22:21:46.526Z,17.19
2022-08-25T22:24:15.615Z,17.16
2022-08-25T22:26:43.282Z,17.26
2022-08-25T22:29:20.736Z,17.32
2022-08-25T22:32:00.699Z,17.34
2022-08-25T22:34:34.475Z,17.28
2022-08-25T22:37:03.527Z,17.81
2022-08-25T22:40:10.261Z,18.39
2022-08-25T22:42:37.444Z,18.46
2022-08-25T22:45:05.154Z,18.40
2022-08-25T22:47:32.185Z,18.19
2022-08-25T22:49:59.613Z,17.88
2022-08-25T22:52:33.222Z,17.69
2022-08-25T22:55:01.402Z,17.52
2022-08-25T22:57:28.675Z,17.45
2022-08-25T22:59:56.914Z,17.40
2022-08-25T23:02:23.861Z,17.35
2022-08-25T23:04:50.938Z,17.25
2022-08-25T23:07:24.112Z,17.17
2022-08-25T23:09:51.561Z,17.03
2022-08-25T23:12:18.633Z,16.97
2022-08-25T23:14:46.174Z,16.98
2022-08-25T23:17:13.836Z,16.94
2022-08-25T23:19:40.871Z,17.43
2022-08-25T23:22:11.039Z,17.86
2022-08-25T23:24:52.708Z,17.99
2022-08-25T23:27:20.984Z,17.89
2022-08-25T23:29:49.138Z,17.58
2022-08-25T23:32:17.252Z,17.32
2022-08-25T23:34:46.742Z,17.14
2022-08-25T23:37:14.349Z,17.01
2022-08-25T23:39:45.668Z,16.86
2022-08-25T23:42:12.870Z,16.64
2022-08-25T23:44:40.022Z,16.45
2022-08-25T23:47:07.294Z,16.32
2022-08-25T23:49:39.465Z,16.76
2022-08-25T23:52:06.795Z,17.29
2022-08-25T23:54:33.845Z,17.42
2022-08-25T23:57:00.824Z,17.28
2022-08-25T23:59:29.211Z,17.08
